sensor_id;sensor_type;location;lat;lon;timestamp;temperature;humidity
25741;DHT22;13592;50.838;4.412;2023-03-12T00:00:44;7.40;96.80
25741;DHT22;13592;50.838;4.412;2023-03-12T00:03:09;7.20;97.10
25741;DHT22;13592;50.838;4.412;2023-03-12T00:05:39;7.10;97.20
25741;DHT22;13592;50.838;4.412;2023-03-12T00:08:06;7.10;97.40
25741;DHT22;13592;50.838;4.412;2023-03-12T00:10:37;7.30;96.70
25741;DHT22;13592;50.838;4.412;2023-03-12T00:13:03;7.20;97.30
25741;DHT22;13592;50.838;4.412;2023-03-12T00:15:31;7.30;97.40
25741;DHT22;13592;50.838;4.412;2023-03-12T00:20:31;7.30;97.80
25741;DHT22;13592;50.838;4.412;2023-03-12T00:22:59;7.50;97.30
25741;DHT22;13592;50.838;4.412;2023-03-12T00:25:24;7.50;97.00
25741;DHT22;13592;50.838;4.412;2023-03-12T00:28:07;7.60;96.40
25741;DHT22;13592;50.838;4.412;2023-03-12T00:30:32;7.40;96.40
25741;DHT22;13592;50.838;4.412;2023-03-12T00:32:59;7.50;96.90
25741;DHT22;13592;50.838;4.412;2023-03-12T00:37:56;7.40;97.50
25741;DHT22;13592;50.838;4.412;2023-03-12T00:40:24;7.50;97.50
25741;DHT22;13592;50.838;4.412;2023-03-12T00:42:54;7.40;97.10
25741;DHT22;13592;50.838;4.412;2023-03-12T00:45:29;7.30;97.00
25741;DHT22;13592;50.838;4.412;2023-03-12T00:47:58;7.10;97.60
25741;DHT22;13592;50.838;4.412;2023-03-12T00:52:52;7.40;97.50
25741;DHT22;13592;50.838;4.412;2023-03-12T00:55:20;7.30;97.50
25741;DHT22;13592;50.838;4.412;2023-03-12T00:57:49;7.30;97.20
25741;DHT22;13592;50.838;4.412;2023-03-12T01:00:14;7.20;97.40
25741;DHT22;13592;50.838;4.412;2023-03-12T01:02:44;7.20;97.60
25741;DHT22;13592;50.838;4.412;2023-03-12T01:05:15;7.20;98.30
25741;DHT22;13592;50.838;4.412;2023-03-12T01:07:42;7.20;98.10
25741;DHT22;13592;50.838;4.412;2023-03-12T01:12:54;7.10;99.20
25741;DHT22;13592;50.838;4.412;2023-03-12T01:15:21;7.10;99.90
25741;DHT22;13592;50.838;4.412;2023-03-12T01:17:47;7.20;99.90
25741;DHT22;13592;50.838;4.412;2023-03-12T01:20:13;7.30;99.90
25741;DHT22;13592;50.838;4.412;2023-03-12T01:27:38;7.50;99.90
25741;DHT22;13592;50.838;4.412;2023-03-12T01:30:03;7.40;99.90
25741;DHT22;13592;50.838;4.412;2023-03-12T01:32:29;7.50;99.90
25741;DHT22;13592;50.838;4.412;2023-03-12T01:34:57;7.40;99.90
25741;DHT22;13592;50.838;4.412;2023-03-12T01:37:23;7.10;99.90
25741;DHT22;13592;50.838;4.412;2023-03-12T01:39:53;7.30;99.90
25741;DHT22;13592;50.838;4.412;2023-03-12T01:42:21;7.20;99.90
25741;DHT22;13592;50.838;4.412;2023-03-12T01:44:53;7.00;99.90
25741;DHT22;13592;50.838;4.412;2023-03-12T01:49:51;6.90;99.90
25741;DHT22;13592;50.838;4.412;2023-03-12T01:52:24;6.90;99.90
25741;DHT22;13592;50.838;4.412;2023-03-12T01:54:58;6.70;99.90
25741;DHT22;13592;50.838;4.412;2023-03-12T01:57:28;6.60;99.90
25741;DHT22;13592;50.838;4.412;2023-03-12T01:59:55;6.70;99.90
25741;DHT22;13592;50.838;4.412;2023-03-12T02:02:23;6.60;99.90
25741;DHT22;13592;50.838;4.412;2023-03-12T02:09:57;6.60;99.90
25741;DHT22;13592;50.838;4.412;2023-03-12T02:12:26;6.70;99.90
25741;DHT22;13592;50.838;4.412;2023-03-12T02:14:53;6.90;99.90
25741;DHT22;13592;50.838;4.412;2023-03-12T02:17:24;6.80;99.90
25741;DHT22;13592;50.838;4.412;2023-03-12T02:22:18;6.80;99.90
25741;DHT22;13592;50.838;4.412;2023-03-12T02:29:43;6.70;99.90
25741;DHT22;13592;50.838;4.412;2023-03-12T02:32:20;6.80;99.90
25741;DHT22;13592;50.838;4.412;2023-03-12T02:34:49;6.70;99.90
25741;DHT22;13592;50.838;4.412;2023-03-12T02:39:50;6.60;99.90
25741;DHT22;13592;50.838;4.412;2023-03-12T02:42:23;6.80;99.90
25741;DHT22;13592;50.838;4.412;2023-03-12T02:47:21;6.70;99.90
25741;DHT22;13592;50.838;4.412;2023-03-12T02:49:54;6.60;99.90
25741;DHT22;13592;50.838;4.412;2023-03-12T02:52:27;6.70;99.90
25741;DHT22;13592;50.838;4.412;2023-03-12T02:54:55;6.70;99.90
25741;DHT22;13592;50.838;4.412;2023-03-12T02:59:52;6.70;99.90
25741;DHT22;13592;50.838;4.412;2023-03-12T03:02:21;6.80;99.90
25741;DHT22;13592;50.838;4.412;2023-03-12T03:04:46;6.90;99.90
25741;DHT22;13592;50.838;4.412;2023-03-12T03:07:12;6.80;99.90
25741;DHT22;13592;50.838;4.412;2023-03-12T03:09:40;6.70;99.90
25741;DHT22;13592;50.838;4.412;2023-03-12T03:12:06;6.70;99.90
25741;DHT22;13592;50.838;4.412;2023-03-12T03:14:33;6.70;99.90
25741;DHT22;13592;50.838;4.412;2023-03-12T03:16:58;6.80;99.90
25741;DHT22;13592;50.838;4.412;2023-03-12T03:22:14;6.70;99.90
25741;DHT22;13592;50.838;4.412;2023-03-12T03:24:41;6.90;99.90
25741;DHT22;13592;50.838;4.412;2023-03-12T03:27:08;7.00;99.90
25741;DHT22;13592;50.838;4.412;2023-03-12T03:29:36;7.20;99.90
25741;DHT22;13592;50.838;4.412;2023-03-12T03:32:02;7.20;99.90
25741;DHT22;13592;50.838;4.412;2023-03-12T03:34:30;7.20;99.90
25741;DHT22;13592;50.838;4.412;2023-03-12T03:36:55;6.90;99.90
25741;DHT22;13592;50.838;4.412;2023-03-12T03:39:22;7.00;99.90
25741;DHT22;13592;50.838;4.412;2023-03-12T03:41:59;7.00;99.90
25741;DHT22;13592;50.838;4.412;2023-03-12T03:44:27;7.00;99.90
25741;DHT22;13592;50.838;4.412;2023-03-12T03:46:55;7.10;99.90
25741;DHT22;13592;50.838;4.412;2023-03-12T03:49:21;7.30;99.90
25741;DHT22;13592;50.838;4.412;2023-03-12T03:51:54;7.10;99.90
25741;DHT22;13592;50.838;4.412;2023-03-12T03:54:20;6.90;99.90
25741;DHT22;13592;50.838;4.412;2023-03-12T03:56:46;6.80;99.90
25741;DHT22;13592;50.838;4.412;2023-03-12T03:59:25;7.00;99.90
25741;DHT22;13592;50.838;4.412;2023-03-12T04:01:51;7.10;99.90
25741;DHT22;13592;50.838;4.412;2023-03-12T04:06:46;7.10;99.90
25741;DHT22;13592;50.838;4.412;2023-03-12T04:11:43;7.10;99.90
25741;DHT22;13592;50.838;4.412;2023-03-12T04:16:39;7.00;99.90
25741;DHT22;13592;50.838;4.412;2023-03-12T04:19:05;7.10;99.90
25741;DHT22;13592;50.838;4.412;2023-03-12T04:21:31;7.10;99.90
25741;DHT22;13592;50.838;4.412;2023-03-12T04:23:56;7.10;99.90
25741;DHT22;13592;50.838;4.412;2023-03-12T04:26:24;7.30;99.90
25741;DHT22;13592;50.838;4.412;2023-03-12T04:28:49;7.40;99.90
25741;DHT22;13592;50.838;4.412;2023-03-12T04:31:26;7.40;99.90
25741;DHT22;13592;50.838;4.412;2023-03-12T04:36:46;7.50;99.90
25741;DHT22;13592;50.838;4.412;2023-03-12T04:39:16;7.30;99.90
25741;DHT22;13592;50.838;4.412;2023-03-12T04:41:47;7.30;99.90
25741;DHT22;13592;50.838;4.412;2023-03-12T04:44:13;7.20;99.90
25741;DHT22;13592;50.838;4.412;2023-03-12T04:46:39;7.10;99.90
25741;DHT22;13592;50.838;4.412;2023-03-12T04:49:04;7.10;99.90
25741;DHT22;13592;50.838;4.412;2023-03-12T04:51:34;7.40;99.90
25741;DHT22;13592;50.838;4.412;2023-03-12T04:57:03;7.50;99.90
25741;DHT22;13592;50.838;4.412;2023-03-12T05:01:57;7.30;99.90
25741;DHT22;13592;50.838;4.412;2023-03-12T05:04:31;7.30;99.90
25741;DHT22;13592;50.838;4.412;2023-03-12T05:07:10;7.30;99.90
25741;DHT22;13592;50.838;4.412;2023-03-12T05:09:47;7.40;99.90
25741;DHT22;13592;50.838;4.412;2023-03-12T05:12:14;7.30;99.90
25741;DHT22;13592;50.838;4.412;2023-03-12T05:14:49;7.30;99.90
25741;DHT22;13592;50.838;4.412;2023-03-12T05:17:15;7.20;99.90
25741;DHT22;13592;50.838;4.412;2023-03-12T05:19:42;7.30;99.90
25741;DHT22;13592;50.838;4.412;2023-03-12T05:22:10;7.40;99.90
25741;DHT22;13592;50.838;4.412;2023-03-12T05:24:36;7.50;99.90
25741;DHT22;13592;50.838;4.412;2023-03-12T05:27:03;7.50;99.90
25741;DHT22;13592;50.838;4.412;2023-03-12T05:32:01;7.80;99.90
25741;DHT22;13592;50.838;4.412;2023-03-12T05:34:27;7.80;99.90
25741;DHT22;13592;50.838;4.412;2023-03-12T05:36:56;7.70;99.90
25741;DHT22;13592;50.838;4.412;2023-03-12T05:41:51;7.80;99.90
25741;DHT22;13592;50.838;4.412;2023-03-12T05:44:24;7.60;99.90
25741;DHT22;13592;50.838;4.412;2023-03-12T05:46:50;7.50;99.90
25741;DHT22;13592;50.838;4.412;2023-03-12T05:49:22;7.70;99.90
25741;DHT22;13592;50.838;4.412;2023-03-12T05:54:17;8.00;99.90
25741;DHT22;13592;50.838;4.412;2023-03-12T05:56:44;8.00;99.90
25741;DHT22;13592;50.838;4.412;2023-03-12T05:59:11;7.90;99.90
25741;DHT22;13592;50.838;4.412;2023-03-12T06:01:39;7.80;99.90
25741;DHT22;13592;50.838;4.412;2023-03-12T06:04:06;7.90;99.90
25741;DHT22;13592;50.838;4.412;2023-03-12T06:06:35;7.80;99.90
25741;DHT22;13592;50.838;4.412;2023-03-12T06:09:02;8.10;99.90
25741;DHT22;13592;50.838;4.412;2023-03-12T06:11:32;8.20;99.90
25741;DHT22;13592;50.838;4.412;2023-03-12T06:13:57;8.00;99.90
25741;DHT22;13592;50.838;4.412;2023-03-12T06:16:24;8.00;99.90
25741;DHT22;13592;50.838;4.412;2023-03-12T06:21:28;8.20;99.90
25741;DHT22;13592;50.838;4.412;2023-03-12T06:24:03;8.20;99.90
25741;DHT22;13592;50.838;4.412;2023-03-12T06:26:32;8.30;99.90
25741;DHT22;13592;50.838;4.412;2023-03-12T06:29:00;8.40;99.90
25741;DHT22;13592;50.838;4.412;2023-03-12T06:31:27;8.40;99.90
25741;DHT22;13592;50.838;4.412;2023-03-12T06:33:53;8.30;99.90
25741;DHT22;13592;50.838;4.412;2023-03-12T06:36:19;8.10;99.90
25741;DHT22;13592;50.838;4.412;2023-03-12T06:38:49;8.20;99.90
25741;DHT22;13592;50.838;4.412;2023-03-12T06:41:15;8.40;99.90
25741;DHT22;13592;50.838;4.412;2023-03-12T06:46:48;8.20;99.90
25741;DHT22;13592;50.838;4.412;2023-03-12T06:49:15;8.20;99.90
25741;DHT22;13592;50.838;4.412;2023-03-12T06:51:41;8.20;99.90
25741;DHT22;13592;50.838;4.412;2023-03-12T06:54:14;8.30;99.90
25741;DHT22;13592;50.838;4.412;2023-03-12T06:59:10;8.40;99.90
25741;DHT22;13592;50.838;4.412;2023-03-12T07:01:48;8.80;99.90
25741;DHT22;13592;50.838;4.412;2023-03-12T07:04:20;8.70;99.90
25741;DHT22;13592;50.838;4.412;2023-03-12T07:06:47;8.60;99.90
25741;DHT22;13592;50.838;4.412;2023-03-12T07:09:17;8.60;99.90
25741;DHT22;13592;50.838;4.412;2023-03-12T07:11:45;8.60;99.90
25741;DHT22;13592;50.838;4.412;2023-03-12T07:14:13;8.60;99.90
25741;DHT22;13592;50.838;4.412;2023-03-12T07:16:38;8.70;99.90
25741;DHT22;13592;50.838;4.412;2023-03-12T07:19:15;8.70;99.90
25741;DHT22;13592;50.838;4.412;2023-03-12T07:21:43;8.60;99.90
25741;DHT22;13592;50.838;4.412;2023-03-12T07:24:11;8.70;99.90
25741;DHT22;13592;50.838;4.412;2023-03-12T07:26:43;8.80;99.90
25741;DHT22;13592;50.838;4.412;2023-03-12T07:29:21;8.90;99.90
25741;DHT22;13592;50.838;4.412;2023-03-12T07:31:56;8.90;99.90
25741;DHT22;13592;50.838;4.412;2023-03-12T07:34:25;8.90;99.90
25741;DHT22;13592;50.838;4.412;2023-03-12T07:36:52;9.00;99.90
25741;DHT22;13592;50.838;4.412;2023-03-12T07:39:19;9.00;99.90
25741;DHT22;13592;50.838;4.412;2023-03-12T07:44:41;9.00;99.90
25741;DHT22;13592;50.838;4.412;2023-03-12T07:47:11;9.20;99.90
25741;DHT22;13592;50.838;4.412;2023-03-12T07:49:38;9.00;99.90
25741;DHT22;13592;50.838;4.412;2023-03-12T07:52:11;8.90;99.90
25741;DHT22;13592;50.838;4.412;2023-03-12T07:54:53;9.00;99.90
25741;DHT22;13592;50.838;4.412;2023-03-12T07:57:21;9.10;99.90
25741;DHT22;13592;50.838;4.412;2023-03-12T07:59:50;9.20;99.90
25741;DHT22;13592;50.838;4.412;2023-03-12T08:02:15;9.20;99.90
25741;DHT22;13592;50.838;4.412;2023-03-12T08:04:48;9.40;99.90
25741;DHT22;13592;50.838;4.412;2023-03-12T08:07:15;9.40;99.90
25741;DHT22;13592;50.838;4.412;2023-03-12T08:09:41;9.50;99.90
25741;DHT22;13592;50.838;4.412;2023-03-12T08:12:10;9.60;99.90
25741;DHT22;13592;50.838;4.412;2023-03-12T08:14:36;9.60;99.90
25741;DHT22;13592;50.838;4.412;2023-03-12T08:17:04;9.70;99.90
25741;DHT22;13592;50.838;4.412;2023-03-12T08:19:36;9.70;99.90
25741;DHT22;13592;50.838;4.412;2023-03-12T08:22:03;9.60;99.90
25741;DHT22;13592;50.838;4.412;2023-03-12T08:24:29;9.60;99.90
25741;DHT22;13592;50.838;4.412;2023-03-12T08:26:59;9.60;99.90
25741;DHT22;13592;50.838;4.412;2023-03-12T08:29:26;9.60;99.90
25741;DHT22;13592;50.838;4.412;2023-03-12T08:31:55;9.80;99.90
25741;DHT22;13592;50.838;4.412;2023-03-12T08:36:54;9.80;99.90
25741;DHT22;13592;50.838;4.412;2023-03-12T08:39:20;9.80;99.90
25741;DHT22;13592;50.838;4.412;2023-03-12T08:41:46;9.80;99.90
25741;DHT22;13592;50.838;4.412;2023-03-12T08:44:14;9.90;99.90
25741;DHT22;13592;50.838;4.412;2023-03-12T08:46:42;9.90;99.90
25741;DHT22;13592;50.838;4.412;2023-03-12T08:51:44;10.00;99.90
25741;DHT22;13592;50.838;4.412;2023-03-12T08:54:15;10.10;99.90
25741;DHT22;13592;50.838;4.412;2023-03-12T08:56:40;10.20;99.90
25741;DHT22;13592;50.838;4.412;2023-03-12T08:59:14;10.30;99.90
25741;DHT22;13592;50.838;4.412;2023-03-12T09:01:44;10.50;99.90
25741;DHT22;13592;50.838;4.412;2023-03-12T09:04:09;10.70;99.90
25741;DHT22;13592;50.838;4.412;2023-03-12T09:06:36;11.00;99.90
25741;DHT22;13592;50.838;4.412;2023-03-12T09:09:04;11.00;99.90
25741;DHT22;13592;50.838;4.412;2023-03-12T09:11:34;11.10;99.90
25741;DHT22;13592;50.838;4.412;2023-03-12T09:14:01;11.10;99.90
25741;DHT22;13592;50.838;4.412;2023-03-12T09:16:28;11.40;99.90
25741;DHT22;13592;50.838;4.412;2023-03-12T09:18:56;11.60;99.90
25741;DHT22;13592;50.838;4.412;2023-03-12T09:21:23;11.50;99.90
25741;DHT22;13592;50.838;4.412;2023-03-12T09:23:50;11.50;99.90
25741;DHT22;13592;50.838;4.412;2023-03-12T09:26:24;11.60;99.90
25741;DHT22;13592;50.838;4.412;2023-03-12T09:28:51;11.90;99.90
25741;DHT22;13592;50.838;4.412;2023-03-12T09:31:16;12.30;99.90
25741;DHT22;13592;50.838;4.412;2023-03-12T09:33:42;12.60;99.90
25741;DHT22;13592;50.838;4.412;2023-03-12T09:36:07;13.20;99.90
25741;DHT22;13592;50.838;4.412;2023-03-12T09:38:36;13.90;99.90
25741;DHT22;13592;50.838;4.412;2023-03-12T09:46:42;14.30;99.90
25741;DHT22;13592;50.838;4.412;2023-03-12T09:52:18;14.10;99.90
25741;DHT22;13592;50.838;4.412;2023-03-12T09:55:01;13.70;99.90
25741;DHT22;13592;50.838;4.412;2023-03-12T09:57:30;14.00;99.90
25741;DHT22;13592;50.838;4.412;2023-03-12T09:59:59;13.70;99.90
25741;DHT22;13592;50.838;4.412;2023-03-12T10:05:19;13.80;99.90
25741;DHT22;13592;50.838;4.412;2023-03-12T10:07:45;13.70;99.90
25741;DHT22;13592;50.838;4.412;2023-03-12T10:23:26;12.80;99.90
25741;DHT22;13592;50.838;4.412;2023-03-12T10:26:37;12.50;99.90
25741;DHT22;13592;50.838;4.412;2023-03-12T10:31:22;12.90;99.90
25741;DHT22;13592;50.838;4.412;2023-03-12T10:33:53;13.00;99.90
25741;DHT22;13592;50.838;4.412;2023-03-12T10:36:24;13.10;99.90
25741;DHT22;13592;50.838;4.412;2023-03-12T10:38:51;13.30;99.90
25741;DHT22;13592;50.838;4.412;2023-03-12T10:41:18;13.40;99.90
25741;DHT22;13592;50.838;4.412;2023-03-12T10:43:45;13.50;99.90
25741;DHT22;13592;50.838;4.412;2023-03-12T10:48:42;14.10;99.90
25741;DHT22;13592;50.838;4.412;2023-03-12T10:51:09;14.40;99.90
25741;DHT22;13592;50.838;4.412;2023-03-12T10:53:35;14.30;99.90
25741;DHT22;13592;50.838;4.412;2023-03-12T10:56:14;14.10;99.90
25741;DHT22;13592;50.838;4.412;2023-03-12T10:58:42;14.00;99.90
25741;DHT22;13592;50.838;4.412;2023-03-12T11:03:42;14.00;99.90
25741;DHT22;13592;50.838;4.412;2023-03-12T11:06:23;14.00;99.90
25741;DHT22;13592;50.838;4.412;2023-03-12T11:09:03;13.80;99.90
25741;DHT22;13592;50.838;4.412;2023-03-12T11:11:33;13.70;99.90
25741;DHT22;13592;50.838;4.412;2023-03-12T11:14:14;13.90;99.90
25741;DHT22;13592;50.838;4.412;2023-03-12T11:16:45;13.70;99.90
25741;DHT22;13592;50.838;4.412;2023-03-12T11:19:11;13.80;99.90
25741;DHT22;13592;50.838;4.412;2023-03-12T11:21:52;13.80;99.90
25741;DHT22;13592;50.838;4.412;2023-03-12T11:24:20;13.60;99.90
25741;DHT22;13592;50.838;4.412;2023-03-12T11:26:52;13.40;99.90
25741;DHT22;13592;50.838;4.412;2023-03-12T11:29:25;13.40;99.90
25741;DHT22;13592;50.838;4.412;2023-03-12T11:32:03;13.40;99.90
25741;DHT22;13592;50.838;4.412;2023-03-12T11:34:32;13.20;99.90
25741;DHT22;13592;50.838;4.412;2023-03-12T11:47:52;13.60;99.90
25741;DHT22;13592;50.838;4.412;2023-03-12T11:53:22;13.70;99.90
25741;DHT22;13592;50.838;4.412;2023-03-12T11:55:55;13.40;99.90
25741;DHT22;13592;50.838;4.412;2023-03-12T12:04:18;13.30;99.90
25741;DHT22;13592;50.838;4.412;2023-03-12T12:07:03;13.20;99.90
25741;DHT22;13592;50.838;4.412;2023-03-12T12:12:03;13.20;99.90
25741;DHT22;13592;50.838;4.412;2023-03-12T12:20:25;13.20;99.90
25741;DHT22;13592;50.838;4.412;2023-03-12T12:23:16;13.30;99.90
25741;DHT22;13592;50.838;4.412;2023-03-12T12:35:52;13.70;99.90
25741;DHT22;13592;50.838;4.412;2023-03-12T12:46:51;13.90;99.90
25741;DHT22;13592;50.838;4.412;2023-03-12T12:51:57;13.50;99.90
25741;DHT22;13592;50.838;4.412;2023-03-12T12:59:42;13.60;99.90
25741;DHT22;13592;50.838;4.412;2023-03-12T13:02:21;13.70;99.90
25741;DHT22;13592;50.838;4.412;2023-03-12T13:04:59;13.60;99.90
25741;DHT22;13592;50.838;4.412;2023-03-12T13:07:29;13.70;99.90
25741;DHT22;13592;50.838;4.412;2023-03-12T13:09:57;13.80;99.90
25741;DHT22;13592;50.838;4.412;2023-03-12T13:12:30;13.90;99.90
25741;DHT22;13592;50.838;4.412;2023-03-12T13:15:00;14.00;99.90
25741;DHT22;13592;50.838;4.412;2023-03-12T13:17:27;13.90;99.90
25741;DHT22;13592;50.838;4.412;2023-03-12T13:19:58;13.90;99.90
25741;DHT22;13592;50.838;4.412;2023-03-12T13:22:28;13.70;99.90
25741;DHT22;13592;50.838;4.412;2023-03-12T13:27:43;13.50;99.90
25741;DHT22;13592;50.838;4.412;2023-03-12T13:35:30;13.00;99.90
25741;DHT22;13592;50.838;4.412;2023-03-12T13:37:58;13.10;99.90
25741;DHT22;13592;50.838;4.412;2023-03-12T13:43:15;13.20;99.90
25741;DHT22;13592;50.838;4.412;2023-03-12T13:45:59;13.30;99.90
25741;DHT22;13592;50.838;4.412;2023-03-12T13:48:30;13.40;99.90
25741;DHT22;13592;50.838;4.412;2023-03-12T13:50:58;13.50;99.90
25741;DHT22;13592;50.838;4.412;2023-03-12T13:56:06;13.60;99.90
25741;DHT22;13592;50.838;4.412;2023-03-12T13:58:39;13.40;99.90
25741;DHT22;13592;50.838;4.412;2023-03-12T14:01:05;13.60;99.90
25741;DHT22;13592;50.838;4.412;2023-03-12T14:03:35;13.50;99.90
25741;DHT22;13592;50.838;4.412;2023-03-12T14:16:32;13.60;99.90
25741;DHT22;13592;50.838;4.412;2023-03-12T14:19:04;13.60;99.90
25741;DHT22;13592;50.838;4.412;2023-03-12T14:21:32;13.60;99.90
25741;DHT22;13592;50.838;4.412;2023-03-12T14:24:02;13.60;99.90
25741;DHT22;13592;50.838;4.412;2023-03-12T14:26:40;13.50;99.90
25741;DHT22;13592;50.838;4.412;2023-03-12T14:29:14;13.50;99.90
25741;DHT22;13592;50.838;4.412;2023-03-12T14:31:50;13.60;99.90
25741;DHT22;13592;50.838;4.412;2023-03-12T14:34:22;13.60;99.90
25741;DHT22;13592;50.838;4.412;2023-03-12T14:42:03;13.40;99.90
25741;DHT22;13592;50.838;4.412;2023-03-12T14:44:51;13.50;99.90
25741;DHT22;13592;50.838;4.412;2023-03-12T14:47:20;13.70;99.90
25741;DHT22;13592;50.838;4.412;2023-03-12T14:49:49;13.80;99.90
25741;DHT22;13592;50.838;4.412;2023-03-12T14:52:25;13.60;99.90
25741;DHT22;13592;50.838;4.412;2023-03-12T14:54:55;13.50;99.90
25741;DHT22;13592;50.838;4.412;2023-03-12T14:57:22;13.60;99.90
25741;DHT22;13592;50.838;4.412;2023-03-12T15:02:31;13.60;99.90
25741;DHT22;13592;50.838;4.412;2023-03-12T15:05:14;13.70;99.90
25741;DHT22;13592;50.838;4.412;2023-03-12T15:07:43;13.60;99.90
25741;DHT22;13592;50.838;4.412;2023-03-12T15:10:19;13.50;99.90
25741;DHT22;13592;50.838;4.412;2023-03-12T15:12:44;13.50;99.90
25741;DHT22;13592;50.838;4.412;2023-03-12T15:15:47;13.60;99.90
25741;DHT22;13592;50.838;4.412;2023-03-12T15:21:07;13.60;99.90
25741;DHT22;13592;50.838;4.412;2023-03-12T15:23:35;13.50;99.90
25741;DHT22;13592;50.838;4.412;2023-03-12T15:31:58;13.70;99.90
25741;DHT22;13592;50.838;4.412;2023-03-12T15:34:34;13.80;99.90
25741;DHT22;13592;50.838;4.412;2023-03-12T15:40:01;13.80;99.90
25741;DHT22;13592;50.838;4.412;2023-03-12T15:42:39;13.70;99.90
25741;DHT22;13592;50.838;4.412;2023-03-12T15:47:38;13.60;99.90
25741;DHT22;13592;50.838;4.412;2023-03-12T15:50:17;13.50;99.90
25741;DHT22;13592;50.838;4.412;2023-03-12T15:53:00;13.50;99.90
25741;DHT22;13592;50.838;4.412;2023-03-12T15:55:28;13.50;99.90
25741;DHT22;13592;50.838;4.412;2023-03-12T15:58:01;13.40;99.90
25741;DHT22;13592;50.838;4.412;2023-03-12T16:00:43;13.50;99.90
25741;DHT22;13592;50.838;4.412;2023-03-12T16:03:14;13.50;99.90
25741;DHT22;13592;50.838;4.412;2023-03-12T16:05:42;13.50;99.90
25741;DHT22;13592;50.838;4.412;2023-03-12T16:08:25;13.40;99.90
25741;DHT22;13592;50.838;4.412;2023-03-12T16:10:54;13.50;99.90
25741;DHT22;13592;50.838;4.412;2023-03-12T16:13:28;13.50;99.90
25741;DHT22;13592;50.838;4.412;2023-03-12T16:16:05;13.40;99.90
25741;DHT22;13592;50.838;4.412;2023-03-12T16:18:31;13.60;99.90
25741;DHT22;13592;50.838;4.412;2023-03-12T16:20:58;13.50;99.90
25741;DHT22;13592;50.838;4.412;2023-03-12T16:23:25;13.50;99.90
25741;DHT22;13592;50.838;4.412;2023-03-12T16:25:52;13.40;99.90
25741;DHT22;13592;50.838;4.412;2023-03-12T16:28:23;13.50;99.90
25741;DHT22;13592;50.838;4.412;2023-03-12T16:30:50;13.40;99.90
25741;DHT22;13592;50.838;4.412;2023-03-12T16:33:17;13.40;99.90
25741;DHT22;13592;50.838;4.412;2023-03-12T16:38:21;13.40;99.90
25741;DHT22;13592;50.838;4.412;2023-03-12T16:40:47;13.30;99.90
25741;DHT22;13592;50.838;4.412;2023-03-12T16:43:18;13.30;99.90
25741;DHT22;13592;50.838;4.412;2023-03-12T16:45:45;13.10;99.90
25741;DHT22;13592;50.838;4.412;2023-03-12T16:48:16;13.00;99.90
25741;DHT22;13592;50.838;4.412;2023-03-12T16:53:32;13.20;99.90
25741;DHT22;13592;50.838;4.412;2023-03-12T16:55:58;13.20;99.90
25741;DHT22;13592;50.838;4.412;2023-03-12T16:58:25;13.30;99.90
25741;DHT22;13592;50.838;4.412;2023-03-12T17:00:52;13.20;99.90
25741;DHT22;13592;50.838;4.412;2023-03-12T17:05:44;13.20;99.90
25741;DHT22;13592;50.838;4.412;2023-03-12T17:08:09;13.00;99.90
25741;DHT22;13592;50.838;4.412;2023-03-12T17:10:36;13.00;99.90
25741;DHT22;13592;50.838;4.412;2023-03-12T17:13:04;13.00;99.90
25741;DHT22;13592;50.838;4.412;2023-03-12T17:15:29;12.90;99.90
25741;DHT22;13592;50.838;4.412;2023-03-12T17:18:08;12.90;99.90
25741;DHT22;13592;50.838;4.412;2023-03-12T17:20:34;13.10;99.90
25741;DHT22;13592;50.838;4.412;2023-03-12T17:23:01;13.00;99.90
25741;DHT22;13592;50.838;4.412;2023-03-12T17:25:31;13.00;99.90
25741;DHT22;13592;50.838;4.412;2023-03-12T17:27:57;12.90;99.90
25741;DHT22;13592;50.838;4.412;2023-03-12T17:30:27;12.70;99.90
25741;DHT22;13592;50.838;4.412;2023-03-12T17:32:55;12.90;99.90
25741;DHT22;13592;50.838;4.412;2023-03-12T17:35:24;13.00;99.90
25741;DHT22;13592;50.838;4.412;2023-03-12T17:37:49;12.80;99.90
25741;DHT22;13592;50.838;4.412;2023-03-12T17:40:18;12.80;99.90
25741;DHT22;13592;50.838;4.412;2023-03-12T17:42:44;12.60;99.90
25741;DHT22;13592;50.838;4.412;2023-03-12T17:45:10;12.80;99.90
25741;DHT22;13592;50.838;4.412;2023-03-12T17:47:37;12.80;99.90
25741;DHT22;13592;50.838;4.412;2023-03-12T17:52:42;13.00;99.90
25741;DHT22;13592;50.838;4.412;2023-03-12T17:55:08;13.10;99.90
25741;DHT22;13592;50.838;4.412;2023-03-12T17:57:47;13.10;99.90
25741;DHT22;13592;50.838;4.412;2023-03-12T18:00:17;13.00;99.90
25741;DHT22;13592;50.838;4.412;2023-03-12T18:05:18;13.30;99.90
25741;DHT22;13592;50.838;4.412;2023-03-12T18:07:45;13.10;99.90
25741;DHT22;13592;50.838;4.412;2023-03-12T18:10:11;12.80;99.90
25741;DHT22;13592;50.838;4.412;2023-03-12T18:12:38;13.00;99.90
25741;DHT22;13592;50.838;4.412;2023-03-12T18:15:05;13.00;99.90
25741;DHT22;13592;50.838;4.412;2023-03-12T18:17:46;12.70;99.90
25741;DHT22;13592;50.838;4.412;2023-03-12T18:20:16;12.60;99.90
25741;DHT22;13592;50.838;4.412;2023-03-12T18:22:42;12.50;99.90
25741;DHT22;13592;50.838;4.412;2023-03-12T18:25:13;12.50;99.90
25741;DHT22;13592;50.838;4.412;2023-03-12T18:27:45;12.60;99.90
25741;DHT22;13592;50.838;4.412;2023-03-12T18:30:13;12.80;99.90
25741;DHT22;13592;50.838;4.412;2023-03-12T18:32:39;13.00;99.90
25741;DHT22;13592;50.838;4.412;2023-03-12T18:35:05;12.90;99.90
25741;DHT22;13592;50.838;4.412;2023-03-12T18:37:31;13.00;99.90
25741;DHT22;13592;50.838;4.412;2023-03-12T18:39:57;13.20;99.90
25741;DHT22;13592;50.838;4.412;2023-03-12T18:42:25;13.20;99.90
25741;DHT22;13592;50.838;4.412;2023-03-12T18:44:50;13.20;99.90
25741;DHT22;13592;50.838;4.412;2023-03-12T18:47:20;13.20;99.90
25741;DHT22;13592;50.838;4.412;2023-03-12T18:49:52;13.20;99.90
25741;DHT22;13592;50.838;4.412;2023-03-12T18:52:19;13.20;99.90
25741;DHT22;13592;50.838;4.412;2023-03-12T18:54:48;13.20;99.90
25741;DHT22;13592;50.838;4.412;2023-03-12T18:57:15;13.10;99.90
25741;DHT22;13592;50.838;4.412;2023-03-12T18:59:43;13.10;99.90
25741;DHT22;13592;50.838;4.412;2023-03-12T19:02:14;13.10;99.90
25741;DHT22;13592;50.838;4.412;2023-03-12T19:04:43;13.20;99.90
25741;DHT22;13592;50.838;4.412;2023-03-12T19:07:11;13.20;99.90
25741;DHT22;13592;50.838;4.412;2023-03-12T19:09:36;13.20;99.90
25741;DHT22;13592;50.838;4.412;2023-03-12T19:12:10;13.20;99.90
25741;DHT22;13592;50.838;4.412;2023-03-12T19:14:36;13.30;99.90
25741;DHT22;13592;50.838;4.412;2023-03-12T19:17:03;13.30;99.90
25741;DHT22;13592;50.838;4.412;2023-03-12T19:19:31;13.20;99.90
25741;DHT22;13592;50.838;4.412;2023-03-12T19:21:57;13.20;99.90
25741;DHT22;13592;50.838;4.412;2023-03-12T19:24:25;13.10;99.90
25741;DHT22;13592;50.838;4.412;2023-03-12T19:26:51;13.00;99.90
25741;DHT22;13592;50.838;4.412;2023-03-12T19:32:06;13.00;99.90
25741;DHT22;13592;50.838;4.412;2023-03-12T19:34:32;13.00;99.90
25741;DHT22;13592;50.838;4.412;2023-03-12T19:37:02;12.90;99.90
25741;DHT22;13592;50.838;4.412;2023-03-12T19:39:39;12.90;99.90